createdAt,value
2022-08-28T00:01:20.981Z,99904.22
2022-08-28T00:04:24.410Z,99899.31
2022-08-28T00:07:27.464Z,99916.16
2022-08-28T00:10:30.563Z,99915.47
2022-08-28T00:13:33.262Z,99897.66
2022-08-28T00:16:36.683Z,99906.91
2022-08-28T00:19:39.436Z,99920.72
2022-08-28T00:22:42.506Z,99927.16
2022-08-28T00:25:45.207Z,99934.41
2022-08-28T00:28:48.220Z,99930.16
2022-08-28T00:31:51.491Z,99925.50
2022-08-28T00:34:54.489Z,99929.16
2022-08-28T00:37:57.609Z,99928.50
2022-08-28T00:41:03.928Z,99906.88
2022-08-28T00:44:20.553Z,99936.28
2022-08-28T00:47:25.171Z,99930.72
2022-08-28T00:50:52.474Z,99932.94
2022-08-28T00:53:58.973Z,99934.16
2022-08-28T00:57:07.381Z,99941.63
2022-08-28T01:00:19.820Z,99942.75
2022-08-28T01:03:25.067Z,99937.50
2022-08-28T01:06:29.581Z,99940.19
2022-08-28T01:09:33.678Z,99932.84
2022-08-28T01:12:37.168Z,99932.28
2022-08-28T01:15:42.212Z,99917.81
2022-08-28T01:18:46.518Z,99928.47
2022-08-28T01:22:19.451Z,99927.91
2022-08-28T01:25:24.763Z,99935.44
2022-08-28T01:28:28.023Z,99937.66
2022-08-28T01:31:32.148Z,99930.41
2022-08-28T01:34:35.420Z,99928.06
2022-08-28T01:37:40.452Z,99911.50
2022-08-28T01:40:46.652Z,99925.41
2022-08-28T01:43:50.812Z,99919.50
2022-08-28T01:46:56.420Z,99920.75
2022-08-28T01:49:59.831Z,99914.50
2022-08-28T01:53:05.015Z,99922.06
2022-08-28T01:56:13.730Z,99915.06
2022-08-28T01:59:16.405Z,99922.06
2022-08-28T02:02:19.473Z,99919.63
2022-08-28T02:05:28.340Z,99921.53
2022-08-28T02:08:30.927Z,99927.56
2022-08-28T02:11:34.311Z,99927.56
2022-08-28T02:14:37.079Z,99918.91
2022-08-28T02:17:40.124Z,99917.25
2022-08-28T02:20:43.045Z,99932.37
2022-08-28T02:23:47.692Z,99930.06
2022-08-28T02:26:50.270Z,99927.13
2022-08-28T02:29:53.332Z,99923.16
2022-08-28T02:32:56.535Z,99914.12
2022-08-28T02:35:59.532Z,99922.47
2022-08-28T02:39:02.381Z,99914.00
2022-08-28T02:42:05.927Z,99923.94
2022-08-28T02:45:11.809Z,99930.28
2022-08-28T02:48:16.715Z,99917.00
2022-08-28T02:51:23.137Z,99922.69
2022-08-28T02:54:29.552Z,99924.03
2022-08-28T02:57:32.391Z,99919.56
2022-08-28T03:00:35.564Z,99921.12
2022-08-28T03:03:41.349Z,99921.03
2022-08-28T03:06:44.721Z,99917.47
2022-08-28T03:09:47.387Z,99910.13
2022-08-28T03:12:50.339Z,99915.78
2022-08-28T03:15:52.969Z,99916.00
2022-08-28T03:18:59.142Z,99922.72
2022-08-28T03:22:01.920Z,99922.13
2022-08-28T03:25:06.203Z,99929.84
2022-08-28T03:28:08.865Z,99928.28
2022-08-28T03:31:18.140Z,99924.72
2022-08-28T03:34:21.124Z,99934.97
2022-08-28T03:37:24.273Z,99929.41
2022-08-28T03:40:27.197Z,99934.41
2022-08-28T03:43:30.403Z,99940.97
2022-08-28T03:46:33.938Z,99944.19
2022-08-28T03:49:36.923Z,99949.75
2022-08-28T03:52:40.974Z,99955.41
2022-08-28T03:55:44.457Z,99951.88
2022-08-28T03:58:47.741Z,99952.19
2022-08-28T04:01:50.773Z,99953.44
2022-08-28T04:04:53.831Z,99950.75
2022-08-28T04:07:56.484Z,99958.22
2022-08-28T04:11:00.968Z,99961.66
2022-08-28T04:14:03.820Z,99962.09
2022-08-28T04:17:07.202Z,99955.22
2022-08-28T04:20:11.123Z,99964.09
2022-08-28T04:23:14.045Z,99972.91
2022-08-28T04:26:20.599Z,99965.56
2022-08-28T04:29:23.807Z,99966.22
2022-08-28T04:32:26.715Z,99967.31
2022-08-28T04:35:29.698Z,99950.53
2022-08-28T04:38:32.528Z,99970.78
2022-08-28T04:41:37.604Z,99973.34
2022-08-28T04:44:40.224Z,99972.34
2022-08-28T04:47:43.408Z,99974.88
2022-08-28T04:50:48.234Z,99972.75
2022-08-28T04:53:51.208Z,99978.19
2022-08-28T04:56:54.480Z,99983.31
2022-08-28T04:59:58.812Z,99992.91
2022-08-28T05:03:01.440Z,99998.34
2022-08-28T05:06:04.711Z,100003.81
2022-08-28T05:09:07.333Z,100008.59
2022-08-28T05:12:16.012Z,100014.59
2022-08-28T05:15:18.600Z,100013.69
2022-08-28T05:18:23.927Z,100009.13
2022-08-28T05:21:27.808Z,100011.16
2022-08-28T05:24:30.755Z,99998.63
2022-08-28T05:27:33.426Z,100020.59
2022-08-28T05:30:37.772Z,100026.09
2022-08-28T05:33:40.448Z,100022.16
2022-08-28T05:36:43.444Z,100031.22
2022-08-28T05:39:46.077Z,100029.00
2022-08-28T05:42:49.919Z,100033.34
2022-08-28T05:46:00.533Z,100035.06
2022-08-28T05:49:09.088Z,100035.38
2022-08-28T05:52:12.631Z,100041.41
2022-08-28T05:55:19.051Z,100042.38
2022-08-28T05:58:31.485Z,100049.56
2022-08-28T06:01:39.822Z,100047.69
2022-08-28T06:04:42.867Z,100058.13
2022-08-28T06:07:45.784Z,100057.53
2022-08-28T06:10:50.896Z,100059.44
2022-08-28T06:13:53.737Z,100062.00
2022-08-28T06:16:57.496Z,100062.28
2022-08-28T06:20:00.151Z,100052.06
2022-08-28T06:23:03.102Z,100062.47
2022-08-28T06:26:07.118Z,100067.47
2022-08-28T06:29:13.172Z,100070.72
2022-08-28T06:32:15.912Z,100067.28
2022-08-28T06:35:18.843Z,100063.56
2022-08-28T06:38:24.717Z,100054.53
2022-08-28T06:41:29.322Z,100066.00
2022-08-28T06:44:32.903Z,100068.03
2022-08-28T06:47:35.975Z,100073.47
2022-08-28T06:50:41.057Z,100061.44
2022-08-28T06:53:46.476Z,100071.37
2022-08-28T06:56:49.811Z,100071.72
2022-08-28T06:59:56.936Z,100079.50
2022-08-28T07:03:00.003Z,100070.44
2022-08-28T07:06:05.481Z,100081.44
2022-08-28T07:09:13.392Z,100078.19
2022-08-28T07:12:17.362Z,100078.63
2022-08-28T07:15:20.319Z,100083.66
2022-08-28T07:18:23.478Z,100082.44
2022-08-28T07:21:27.056Z,100077.34
2022-08-28T07:24:30.473Z,100060.78
2022-08-28T07:27:33.567Z,100077.44
2022-08-28T07:30:36.489Z,100082.66
2022-08-28T07:33:40.927Z,100068.50
2022-08-28T07:36:44.740Z,100087.66
2022-08-28T07:39:47.503Z,100076.06
2022-08-28T07:43:09.252Z,100077.41
2022-08-28T07:46:12.312Z,100080.03
2022-08-28T07:49:18.523Z,100083.91
2022-08-28T07:52:21.163Z,100082.62
2022-08-28T07:55:24.346Z,100094.47
2022-08-28T07:58:27.083Z,100095.63
2022-08-28T08:01:31.518Z,100095.03
2022-08-28T08:04:35.235Z,100097.19
2022-08-28T08:07:41.919Z,100092.31
2022-08-28T08:11:06.403Z,100095.84
2022-08-28T08:14:09.208Z,100101.63
2022-08-28T08:17:12.218Z,100098.03
2022-08-28T08:20:14.920Z,100102.94
2022-08-28T08:23:18.020Z,100102.13
2022-08-28T08:26:23.579Z,100102.13
2022-08-28T08:29:27.964Z,100105.06
2022-08-28T08:32:30.729Z,100099.81
2022-08-28T08:35:33.732Z,100100.75
2022-08-28T08:38:37.303Z,100104.34
2022-08-28T08:41:40.254Z,100118.84
2022-08-28T08:44:47.614Z,100114.84
2022-08-28T08:47:52.655Z,100116.59
2022-08-28T08:50:59.295Z,100119.66
2022-08-28T08:54:21.546Z,100124.03
2022-08-28T08:57:24.307Z,100110.47
2022-08-28T09:00:31.470Z,100126.72
2022-08-28T09:03:53.911Z,100116.69
2022-08-28T09:07:01.755Z,100121.00
2022-08-28T09:10:07.815Z,100118.56
2022-08-28T09:13:31.437Z,100118.00
2022-08-28T09:16:39.923Z,100115.53
2022-08-28T09:19:42.945Z,100107.59
2022-08-28T09:22:47.315Z,100113.59
2022-08-28T09:25:59.601Z,100117.50
2022-08-28T09:29:26.786Z,100114.19
2022-08-28T09:32:29.656Z,100108.59
2022-08-28T09:35:35.719Z,100111.28
2022-08-28T09:38:39.142Z,100108.63
2022-08-28T09:42:22.449Z,100106.38
2022-08-28T09:45:29.021Z,100102.06
2022-08-28T09:48:34.608Z,100102.34
2022-08-28T09:51:39.850Z,100109.28
2022-08-28T09:54:44.919Z,100108.50
2022-08-28T09:57:48.072Z,100101.84
2022-08-28T10:01:04.302Z,100113.97
2022-08-28T10:04:27.507Z,100096.28
2022-08-28T10:07:55.832Z,100104.25
2022-08-28T10:11:16.600Z,100102.47
2022-08-28T10:14:22.300Z,100104.25
2022-08-28T10:17:40.741Z,100102.72
2022-08-28T10:21:12.534Z,100106.56
2022-08-28T10:24:28.309Z,100106.31
2022-08-28T10:27:43.303Z,100104.50
2022-08-28T10:31:06.588Z,100085.47
2022-08-28T10:34:30.300Z,100085.41
2022-08-28T10:37:56.450Z,100085.41
2022-08-28T10:41:04.916Z,100079.97
2022-08-28T10:44:11.252Z,100073.53
2022-08-28T10:47:15.075Z,100068.19
2022-08-28T10:50:26.811Z,100074.53
2022-08-28T10:53:37.932Z,100070.91
2022-08-28T10:56:46.616Z,100071.41
2022-08-28T11:00:04.480Z,100067.91
2022-08-28T11:03:33.211Z,100073.16
2022-08-28T11:07:11.376Z,100063.63
2022-08-28T11:10:29.222Z,100067.03
2022-08-28T11:13:51.623Z,100074.37
2022-08-28T11:17:00.056Z,100075.16
2022-08-28T11:20:29.722Z,100080.22
2022-08-28T11:23:59.842Z,100073.44
2022-08-28T11:27:12.027Z,100064.25
2022-08-28T11:30:32.852Z,100066.16
2022-08-28T11:33:44.667Z,100065.78
2022-08-28T11:36:47.660Z,100056.06
2022-08-28T11:39:50.352Z,100058.47
2022-08-28T11:43:16.945Z,100057.31
2022-08-28T11:46:31.510Z,100056.97
2022-08-28T11:49:34.548Z,100048.44
2022-08-28T11:52:54.743Z,100051.50
2022-08-28T11:56:28.348Z,100046.16
2022-08-28T11:59:47.141Z,100049.88
2022-08-28T12:02:55.625Z,100040.34
2022-08-28T12:06:00.599Z,100040.91
2022-08-28T12:09:04.315Z,100045.44
2022-08-28T12:12:22.280Z,100042.06
2022-08-28T12:15:27.902Z,100036.44
2022-08-28T12:18:40.303Z,100034.69
2022-08-28T12:21:43.832Z,100036.28
2022-08-28T12:25:08.644Z,100029.03
2022-08-28T12:28:22.759Z,100027.94
2022-08-28T12:31:45.516Z,100025.50
2022-08-28T12:35:08.493Z,100028.81
2022-08-28T12:38:20.260Z,100016.13
2022-08-28T12:41:24.635Z,100018.81
2022-08-28T12:44:31.099Z,100020.88
2022-08-28T12:47:35.901Z,100012.69
2022-08-28T12:50:39.799Z,99991.22
2022-08-28T12:53:48.271Z,100002.69
2022-08-28T12:56:51.309Z,99992.25
2022-08-28T12:59:55.923Z,99994.53
2022-08-28T13:03:00.651Z,99994.78
2022-08-28T13:06:06.610Z,99987.09
2022-08-28T13:09:18.666Z,99984.84
2022-08-28T13:12:54.404Z,99969.38
2022-08-28T13:15:55.299Z,99968.78
2022-08-28T13:19:06.772Z,99973.84
2022-08-28T13:22:35.732Z,99979.53
2022-08-28T13:25:38.460Z,99971.22
2022-08-28T13:28:43.831Z,99969.94
2022-08-28T13:31:57.251Z,99962.16
2022-08-28T13:35:09.453Z,99959.75
2022-08-28T13:38:16.073Z,99956.19
2022-08-28T13:41:19.042Z,99956.97
2022-08-28T13:44:24.311Z,99948.75
2022-08-28T13:47:27.516Z,99947.63
2022-08-28T13:50:30.659Z,99950.19
2022-08-28T13:53:33.625Z,99955.09
2022-08-28T13:56:36.344Z,99950.41
2022-08-28T13:59:39.324Z,99951.66
2022-08-28T14:03:01.035Z,99954.41
2022-08-28T14:06:07.486Z,99961.47
2022-08-28T14:09:15.133Z,99942.53
2022-08-28T14:12:20.546Z,99942.00
2022-08-28T14:15:23.240Z,99951.97
2022-08-28T14:18:26.586Z,99958.94
2022-08-28T14:21:29.356Z,99959.91
2022-08-28T14:24:32.754Z,99956.78
2022-08-28T14:27:35.993Z,99953.06
2022-08-28T14:30:47.445Z,99946.72
2022-08-28T14:33:50.189Z,99948.81
2022-08-28T14:36:55.400Z,99941.63
2022-08-28T14:39:58.031Z,99936.44
2022-08-28T14:43:01.001Z,99939.37
2022-08-28T14:46:05.502Z,99935.69
2022-08-28T14:49:13.755Z,99940.75
2022-08-28T14:52:16.400Z,99931.00
2022-08-28T14:55:19.331Z,99935.69
2022-08-28T14:58:22.037Z,99926.47
2022-08-28T15:01:41.266Z,99927.84
2022-08-28T15:04:43.953Z,99927.78
2022-08-28T15:07:46.916Z,99918.91
2022-08-28T15:10:51.131Z,99923.03
2022-08-28T15:13:55.390Z,99910.50
2022-08-28T15:16:58.190Z,99912.97
2022-08-28T15:20:01.238Z,99907.59
2022-08-28T15:23:03.874Z,99923.63
2022-08-28T15:26:06.940Z,99923.84
2022-08-28T15:29:11.912Z,99935.47
2022-08-28T15:32:14.935Z,99927.28
2022-08-28T15:35:17.639Z,99938.88
2022-08-28T15:38:20.679Z,99916.28
2022-08-28T15:41:26.371Z,99924.25
2022-08-28T15:44:29.591Z,99909.63
2022-08-28T15:47:32.185Z,99927.91
2022-08-28T15:50:35.434Z,99946.88
2022-08-28T15:53:39.270Z,99947.91
2022-08-28T15:56:42.201Z,99952.81
2022-08-28T15:59:50.156Z,99958.00
2022-08-28T16:02:59.802Z,99955.91
2022-08-28T16:06:03.680Z,99962.06
2022-08-28T16:09:07.766Z,99962.63
2022-08-28T16:12:10.719Z,99945.88
2022-08-28T16:15:14.103Z,99946.13
2022-08-28T16:18:23.337Z,99954.13
2022-08-28T16:21:27.514Z,99965.41
2022-08-28T16:24:31.228Z,99967.19
2022-08-28T16:27:34.226Z,99964.09
2022-08-28T16:30:43.779Z,99973.28
2022-08-28T16:33:47.195Z,99963.75
2022-08-28T16:36:50.608Z,99974.25
2022-08-28T16:39:56.072Z,99977.81
2022-08-28T16:42:59.172Z,99979.84
2022-08-28T16:46:02.949Z,99988.97
2022-08-28T16:49:05.843Z,99990.41
2022-08-28T16:52:08.475Z,99989.53
2022-08-28T16:55:12.280Z,99987.72
2022-08-28T16:58:17.031Z,99988.28
2022-08-28T17:01:24.117Z,99987.94
2022-08-28T17:04:27.215Z,99987.66
2022-08-28T17:07:30.699Z,99989.56
2022-08-28T17:10:35.844Z,99985.16
2022-08-28T17:13:39.546Z,99984.84
2022-08-28T17:16:42.203Z,99992.91
2022-08-28T17:19:45.195Z,99998.94
2022-08-28T17:22:47.828Z,99996.78
2022-08-28T17:25:51.016Z,100001.50
2022-08-28T17:28:53.731Z,100005.00
2022-08-28T17:31:56.819Z,100008.41
2022-08-28T17:35:00.272Z,100007.75
2022-08-28T17:38:03.481Z,100003.03
2022-08-28T17:41:06.580Z,100002.59
2022-08-28T17:44:10.274Z,99999.44
2022-08-28T17:47:13.180Z,100013.34
2022-08-28T17:50:16.396Z,100015.72
2022-08-28T17:53:19.753Z,100037.63
2022-08-28T17:56:22.796Z,100041.59
2022-08-28T17:59:38.952Z,100041.94
2022-08-28T18:02:42.918Z,100045.03
2022-08-28T18:05:46.502Z,100048.34
2022-08-28T18:08:51.794Z,100037.56
2022-08-28T18:11:54.702Z,100039.22
2022-08-28T18:14:57.419Z,100047.00
2022-08-28T18:18:00.538Z,100057.37
2022-08-28T18:21:03.146Z,100070.13
2022-08-28T18:24:06.689Z,100071.09
2022-08-28T18:27:09.512Z,100053.38
2022-08-28T18:30:12.721Z,100081.19
2022-08-28T18:33:17.734Z,100092.66
2022-08-28T18:36:23.049Z,100088.94
2022-08-28T18:39:29.830Z,100120.50
2022-08-28T18:42:33.052Z,100117.56
2022-08-28T18:45:36.240Z,100125.50
2022-08-28T18:48:39.172Z,100128.72
2022-08-28T18:51:43.503Z,100132.41
2022-08-28T18:54:46.448Z,100130.00
2022-08-28T18:57:50.177Z,100132.53
2022-08-28T19:00:55.055Z,100143.88
2022-08-28T19:03:57.773Z,100143.94
2022-08-28T19:07:00.711Z,100152.25
2022-08-28T19:10:04.900Z,100155.00
2022-08-28T19:13:08.630Z,100158.91
2022-08-28T19:16:17.037Z,100159.78
2022-08-28T19:19:20.020Z,100155.72
2022-08-28T19:22:22.824Z,100151.25
2022-08-28T19:25:29.349Z,100164.28
2022-08-28T19:28:33.466Z,100163.44
2022-08-28T19:31:37.264Z,100156.31
2022-08-28T19:34:39.975Z,100167.78
2022-08-28T19:37:43.589Z,100164.44
2022-08-28T19:40:46.298Z,100168.06
2022-08-28T19:43:49.352Z,100181.94
2022-08-28T19:46:54.233Z,100183.66
2022-08-28T19:49:57.213Z,100182.97
2022-08-28T19:52:59.911Z,100191.81
2022-08-28T19:56:05.121Z,100198.34
2022-08-28T19:59:09.041Z,100200.22
2022-08-28T20:02:12.047Z,100190.44
2022-08-28T20:05:15.764Z,100186.75
2022-08-28T20:08:20.051Z,100197.69
2022-08-28T20:11:30.393Z,100204.56
2022-08-28T20:14:34.421Z,100198.50
2022-08-28T20:17:43.948Z,100190.13
2022-08-28T20:20:52.618Z,100195.56
2022-08-28T20:23:55.597Z,100181.72
2022-08-28T20:26:58.235Z,100193.41
2022-08-28T20:30:07.162Z,100194.19
2022-08-28T20:33:14.272Z,100206.31
2022-08-28T20:36:21.134Z,100213.31
2022-08-28T20:39:24.468Z,100210.69
2022-08-28T20:42:31.646Z,100211.00
2022-08-28T20:45:34.537Z,100217.88
2022-08-28T20:48:38.098Z,100215.38
2022-08-28T20:51:58.880Z,100214.28
2022-08-28T20:55:02.818Z,100214.59
2022-08-28T20:58:05.658Z,100220.66
2022-08-28T21:01:08.750Z,100215.47
2022-08-28T21:04:11.575Z,100219.50
2022-08-28T21:07:17.127Z,100217.34
2022-08-28T21:10:19.836Z,100206.41
2022-08-28T21:13:23.377Z,100207.34
2022-08-28T21:16:26.179Z,100208.91
2022-08-28T21:19:30.252Z,100214.66
2022-08-28T21:22:34.500Z,100223.19
2022-08-28T21:25:41.398Z,100219.72
2022-08-28T21:28:44.016Z,100217.38
2022-08-28T21:31:49.487Z,100207.28
2022-08-28T21:34:53.106Z,100210.81
2022-08-28T21:37:56.078Z,100214.16
2022-08-28T21:41:02.263Z,100203.13
2022-08-28T21:44:06.091Z,100214.16
2022-08-28T21:47:08.744Z,100211.53
2022-08-28T21:50:12.379Z,100217.91
2022-08-28T21:53:16.446Z,100220.81
2022-08-28T21:56:26.867Z,100228.91
2022-08-28T21:59:33.075Z,100229.81
2022-08-28T22:02:40.757Z,100231.03
2022-08-28T22:05:45.802Z,100235.22
2022-08-28T22:08:48.720Z,100239.91
2022-08-28T22:11:51.752Z,100240.66
2022-08-28T22:14:54.360Z,100229.19
2022-08-28T22:17:57.453Z,100242.81
2022-08-28T22:21:19.461Z,100240.94
2022-08-28T22:24:23.593Z,100249.75
2022-08-28T22:27:26.412Z,100247.44
2022-08-28T22:30:29.512Z,100246.47
2022-08-28T22:33:32.994Z,100250.97
2022-08-28T22:36:38.075Z,100253.44
2022-08-28T22:39:42.471Z,100257.56
2022-08-28T22:42:45.474Z,100248.88
2022-08-28T22:45:48.914Z,100257.06
2022-08-28T22:48:51.878Z,100262.47
2022-08-28T22:51:54.558Z,100251.44
2022-08-28T22:54:57.977Z,100252.00
2022-08-28T22:58:01.022Z,100244.53
2022-08-28T23:01:09.228Z,100255.19
2022-08-28T23:04:12.166Z,100254.75
2022-08-28T23:07:15.215Z,100250.44
2022-08-28T23:10:18.700Z,100245.25
2022-08-28T23:13:21.739Z,100249.03
2022-08-28T23:16:24.552Z,100246.72
2022-08-28T23:19:28.611Z,100258.63
2022-08-28T23:22:33.468Z,100268.09
2022-08-28T23:25:36.537Z,100270.25
2022-08-28T23:28:39.741Z,100267.56
2022-08-28T23:31:42.827Z,100266.47
2022-08-28T23:34:45.520Z,100270.84
2022-08-28T23:37:51.973Z,100278.75
2022-08-28T23:40:55.101Z,100274.16
2022-08-28T23:43:58.117Z,100283.44
2022-08-28T23:47:00.823Z,100284.31
2022-08-28T23:50:07.685Z,100292.03
2022-08-28T23:53:10.696Z,100287.00
2022-08-28T23:56:13.980Z,100287.81
2022-08-28T23:59:16.687Z,100291.59
